KHCO

Hallock Municipal Airport

Hallock, Minnesota, USA
METAR KHCO 151935Z AUTO 15011KT 10SM OVC019 M08/M09 A2972 RMK AO2
Observed Flight Rules
Dec-15 @ 19:35 UTC (17 minutes ago) Marginal Visual Flight Rules
Wind Visibility Clouds
150° at 11 knots 10 miles
  • Overcast at 1,900' AGL
Temperatures Readings
Current -8°C / 18°F
Dewpoint -9°C / 16°F
Humidity 93%
Altimeter 29.72" Hg
Pressure 1006 hPa
Elevation 250
METAR KHCO 151935Z AUTO 15011KT 10SM OVC019 M08/M09 A2972 RMK AO2
Observed Flight Rules
Dec-15 @ 19:35 UTC
(17 minutes ago)
MVFR
Wind Visibility
150° at 11 knots 10 miles
Clouds
  • Overcast at 1,900' AGL
Temperature Dewpoint
-8°C / 18°F -9°C / 16°F
Humidity Altimeter Pressure
93% 29.72" Hg 1006 hPa